Del Norte — WDC2280 — position and weather

sailwx.info

Track history (hours):
 
Tides and Currents Weather Stations Pressure Air Temp Water Temp Dewpoint Dewpoint Depression Visibility Wind Speed Wind Dir Waves Ship Positions

Del Norte

Owner: Golden Gate Bridge,Hwy & Transportation District, Larkspur, CA. More information available from US FCC via Universal Licensing System and Coast Guard Vessel Documentation Center.

Last reported at 2016-Dec-07 17:33 UTC. Time now 2016-Dec-07 18:24 UTC.
Position N 37°56' W 122°29'.

Length 48 m.

Type: High speed craft. MMSI: 366990520.

Date/timePositionNaut miles runAvg speedWind from/ knotsBaromVisibWave heightAir tempDewpointWater temp
2016-Dec-07 17:33N 37°56' W 122°29'2 1.6
2016-Dec-07 16:33N 37°55' W 122°28'8 7.9
2016-Dec-07 15:34N 37°48' W 122°24'5 4.6
2016-Dec-07 14:34N 37°52' W 122°25'6 5.6
2016-Dec-07 13:26N 37°57' W 122°31'8 0.8
2016-Dec-07 03:34N 37°51' W 122°24'7 7.2
2016-Dec-07 02:33N 37°57' W 122°30'6 5.7
2016-Dec-07 01:34N 37°52' W 122°25'5 4.9
2016-Dec-07 00:34N 37°48' W 122°23'1010.1
2016-Dec-06 23:33N 37°57' W 122°30'2 2.0
2016-Dec-06 22:33N 37°56' W 122°28'2 2.2
2016-Dec-06 21:33N 37°57' W 122°30'0 0.0
2016-Dec-06 20:32N 37°57' W 122°30'0 0.0
2016-Dec-06 18:33N 37°57' W 122°31'1 1.3
2016-Dec-06 17:34N 37°56' W 122°29'1 0.9
2016-Dec-06 16:34N 37°56' W 122°28'9 8.6
2016-Dec-06 15:33N 37°48' W 122°23'3 3.3
2016-Dec-06 14:33N 37°51' W 122°24'8 7.5
2016-Dec-06 13:33N 37°57' W 122°31'0 0.0
2016-Dec-06 04:18N 37°57' W 122°31'6 8.6
2016-Dec-06 03:34N 37°52' W 122°25'6 6.4
2016-Dec-06 02:33N 37°57' W 122°30'6 6.4
2016-Dec-06 01:33N 37°52' W 122°25'4 4.3
2016-Dec-06 00:33N 37°48' W 122°23'1010.4
2016-Dec-05 23:33N 37°57' W 122°30'4 3.7
2016-Dec-05 22:34N 37°54' W 122°27'4 3.8
2016-Dec-05 21:33N 37°57' W 122°31'0 0.0
2016-Dec-05 20:33N 37°57' W 122°31'0 0.0
2016-Dec-05 19:34N 37°57' W 122°31'7 7.1
2016-Dec-05 18:34N 37°51' W 122°25'5 5.4
2016-Dec-05 17:34N 37°56' W 122°28'1 0.7
2016-Dec-05 16:33N 37°55' W 122°28'8 8.2
2016-Dec-05 15:34N 37°48' W 122°23'3 3.5
2016-Dec-05 14:34N 37°51' W 122°24'7 7.4
2016-Dec-05 13:33N 37°57' W 122°31'0 0.0
2016-Dec-04 04:05N 37°57' W 122°31'917.6
2016-Dec-04 03:34N 37°49' W 122°23'2 1.7
2016-Dec-04 02:33N 37°48' W 122°24'0 0.0
2016-Dec-04 01:33N 37°48' W 122°24'1010.4
2016-Dec-04 00:33N 37°57' W 122°31'1010.5
2016-Dec-03 23:33N 37°48' W 122°24'0 0.0
2016-Dec-03 22:33N 37°48' W 122°24'1010.5
2016-Dec-03 21:33N 37°57' W 122°31'1010.5
2016-Dec-03 20:33N 37°48' W 122°24'1010.5
2016-Dec-03 19:33N 37°57' W 122°31'0 0.0
2016-Dec-03 04:27N 37°57' W 122°31'8 8.9
2016-Dec-03 03:34N 37°50' W 122°24'8 7.8
2016-Dec-03 02:33N 37°57' W 122°30'5 5.4
2016-Dec-03 01:34N 37°53' W 122°26'5 5.2
2016-Dec-03 00:34N 37°48' W 122°23'1010.4
2016-Dec-02 23:34N 37°57' W 122°30'3 3.3
2016-Dec-02 22:33N 37°55' W 122°27'3 3.4
2016-Dec-02 21:33N 37°57' W 122°31'0 0.0
2016-Dec-02 20:33N 37°57' W 122°31'0 0.1
2016-Dec-02 19:33N 37°57' W 122°30'0 0.1
2016-Dec-02 18:33N 37°57' W 122°31'1 1.0
2016-Dec-02 17:33N 37°56' W 122°29'2 1.5
2016-Dec-02 16:33N 37°55' W 122°28'8 8.3
2016-Dec-02 15:33N 37°48' W 122°24'5 4.9
2016-Dec-02 14:34N 37°52' W 122°25'6 6.0
2016-Dec-02 13:33N 37°57' W 122°31'0 0.0
2016-Dec-02 04:24N 37°57' W 122°31'8 8.9
2016-Dec-02 03:34N 37°51' W 122°24'7 7.4
2016-Dec-02 02:33N 37°57' W 122°30'5 4.8
2016-Dec-02 01:33N 37°53' W 122°26'6 5.8
2016-Dec-02 00:33N 37°48' W 122°24'1010.4
2016-Dec-01 23:33N 37°57' W 122°30'4 3.9
2016-Dec-01 22:33N 37°54' W 122°27'4 3.9
2016-Dec-01 21:33N 37°57' W 122°31'0 0.0
2016-Dec-01 20:33N 37°57' W 122°31'0 0.0
2016-Dec-01 19:32N 37°57' W 122°31'7 7.2
2016-Dec-01 18:34N 37°51' W 122°25'6 6.0
2016-Dec-01 17:33N 37°56' W 122°29'2 1.6
2016-Dec-01 16:34N 37°55' W 122°28'8 8.0
2016-Dec-01 15:33N 37°48' W 122°24'4 4.4
2016-Dec-01 14:34N 37°52' W 122°25'7 6.4
2016-Dec-01 13:32N 37°57' W 122°31'0 0.0
2016-Dec-01 04:25N 37°57' W 122°31'7 7.9
2016-Dec-01 03:34N 37°52' W 122°24'7 6.7
2016-Dec-01 02:33N 37°57' W 122°30'6 5.9
2016-Dec-01 01:34N 37°52' W 122°25'5 4.8
2016-Dec-01 00:33N 37°48' W 122°24'1010.4
2016-Nov-30 23:33N 37°57' W 122°30'4 3.9
2016-Nov-30 22:33N 37°54' W 122°27'4 3.9
2016-Nov-30 21:33N 37°57' W 122°30'1 0.9
2016-Nov-30 20:32N 37°56' W 122°29'1 1.0
2016-Nov-30 19:33N 37°57' W 122°30'7 7.2
2016-Nov-30 18:34N 37°51' W 122°25'6 6.1
2016-Nov-30 17:33N 37°56' W 122°29'0 0.1
2016-Nov-30 16:33N 37°56' W 122°29'9 9.4
2016-Nov-30 15:34N 37°48' W 122°23'4 3.6
2016-Nov-30 14:33N 37°51' W 122°24'7 6.6
2016-Nov-30 13:28N 37°57' W 122°31'0 0.0
2016-Nov-30 04:33N 37°57' W 122°30'7 7.0
2016-Nov-30 03:34N 37°52' W 122°24'7 6.9
2016-Nov-30 02:33N 37°57' W 122°30'6 5.7
2016-Nov-30 01:34N 37°53' W 122°25'5 5.1
2016-Nov-30 00:33N 37°48' W 122°24'1010.4
2016-Nov-29 23:33N 37°57' W 122°30'3 2.6
2016-Nov-29 22:34N 37°55' W 122°28'3 2.7
2016-Nov-29 21:33N 37°57' W 122°31'0 0.0
2016-Nov-29 20:33N 37°57' W 122°31'0 0.1
2016-Nov-29 19:33N 37°57' W 122°30'7 7.2
2016-Nov-29 18:33N 37°51' W 122°25'6 6.1
2016-Nov-29 17:34N 37°56' W 122°29'1 0.5
2016-Nov-29 16:33N 37°56' W 122°29'9 9.0
2016-Nov-29 15:34N 37°48' W 122°24'3 3.4
2016-Nov-29 14:34N 37°51' W 122°24'7 7.4
2016-Nov-29 13:33N 37°57' W 122°31'0 0.0
2016-Nov-29 04:14N 37°57' W 122°30'710.1
2016-Nov-29 03:34N 37°52' W 122°24'7 6.8
2016-Nov-29 02:33N 37°57' W 122°30'5 4.9
2016-Nov-29 01:33N 37°53' W 122°26'6 5.8
2016-Nov-29 00:33N 37°48' W 122°23'1010.4
2016-Nov-28 23:33N 37°57' W 122°30'3 3.4
2016-Nov-28 22:33N 37°55' W 122°27'3 3.5
2016-Nov-28 21:33N 37°57' W 122°31'0 0.0
2016-Nov-28 20:33N 37°57' W 122°31'0 0.0
2016-Nov-28 19:34N 37°57' W 122°31'8 7.8
2016-Nov-28 18:33N 37°51' W 122°24'7 6.8
2016-Nov-28 17:33N 37°56' W 122°29'1 1.3
2016-Nov-28 16:33N 37°55' W 122°28'8 8.4
2016-Nov-28 15:33N 37°48' W 122°24'3 2.6
2016-Nov-28 14:33N 37°50' W 122°24'  
Track history (hours):
 
Tides and Currents Weather Stations Pressure Air Temp Water Temp Dewpoint Dewpoint Depression Visibility Wind Speed Wind Dir Waves Ship Positions

Del Norte

Owner: Golden Gate Bridge,Hwy & Transportation District, Larkspur, CA. More information available from US FCC via Universal Licensing System and Coast Guard Vessel Documentation Center.

Last reported at 2016-Dec-07 17:33 UTC. Time now 2016-Dec-07 18:24 UTC.
Position N 37°56' W 122°29'.

Length 48 m.

Type: High speed craft. MMSI: 366990520.

Date/timePositionNaut miles runAvg speedWind from/ knotsBaromVisibWave heightAir tempDewpointWater temp
2016-Dec-07 17:33N 37°56' W 122°29'2 1.6
2016-Dec-07 16:33N 37°55' W 122°28'8 7.9
2016-Dec-07 15:34N 37°48' W 122°24'5 4.6
2016-Dec-07 14:34N 37°52' W 122°25'6 5.6
2016-Dec-07 13:26N 37°57' W 122°31'8 0.8
2016-Dec-07 03:34N 37°51' W 122°24'7 7.2
2016-Dec-07 02:33N 37°57' W 122°30'6 5.7
2016-Dec-07 01:34N 37°52' W 122°25'5 4.9
2016-Dec-07 00:34N 37°48' W 122°23'1010.1
2016-Dec-06 23:33N 37°57' W 122°30'2 2.0
2016-Dec-06 22:33N 37°56' W 122°28'2 2.2
2016-Dec-06 21:33N 37°57' W 122°30'0 0.0
2016-Dec-06 20:32N 37°57' W 122°30'0 0.0
2016-Dec-06 18:33N 37°57' W 122°31'1 1.3
2016-Dec-06 17:34N 37°56' W 122°29'1 0.9
2016-Dec-06 16:34N 37°56' W 122°28'9 8.6
2016-Dec-06 15:33N 37°48' W 122°23'3 3.3
2016-Dec-06 14:33N 37°51' W 122°24'8 7.5
2016-Dec-06 13:33N 37°57' W 122°31'0 0.0
2016-Dec-06 04:18N 37°57' W 122°31'6 8.6
2016-Dec-06 03:34N 37°52' W 122°25'6 6.4
2016-Dec-06 02:33N 37°57' W 122°30'6 6.4
2016-Dec-06 01:33N 37°52' W 122°25'4 4.3
2016-Dec-06 00:33N 37°48' W 122°23'1010.4
2016-Dec-05 23:33N 37°57' W 122°30'4 3.7
2016-Dec-05 22:34N 37°54' W 122°27'4 3.8
2016-Dec-05 21:33N 37°57' W 122°31'0 0.0
2016-Dec-05 20:33N 37°57' W 122°31'0 0.0
2016-Dec-05 19:34N 37°57' W 122°31'7 7.1
2016-Dec-05 18:34N 37°51' W 122°25'5 5.4
2016-Dec-05 17:34N 37°56' W 122°28'1 0.7
2016-Dec-05 16:33N 37°55' W 122°28'8 8.2
2016-Dec-05 15:34N 37°48' W 122°23'3 3.5
2016-Dec-05 14:34N 37°51' W 122°24'7 7.4
2016-Dec-05 13:33N 37°57' W 122°31'0 0.0
2016-Dec-04 04:05N 37°57' W 122°31'917.6
2016-Dec-04 03:34N 37°49' W 122°23'2 1.7
2016-Dec-04 02:33N 37°48' W 122°24'0 0.0
2016-Dec-04 01:33N 37°48' W 122°24'1010.4
2016-Dec-04 00:33N 37°57' W 122°31'1010.5
2016-Dec-03 23:33N 37°48' W 122°24'0 0.0
2016-Dec-03 22:33N 37°48' W 122°24'1010.5
2016-Dec-03 21:33N 37°57' W 122°31'1010.5
2016-Dec-03 20:33N 37°48' W 122°24'1010.5
2016-Dec-03 19:33N 37°57' W 122°31'0 0.0
2016-Dec-03 04:27N 37°57' W 122°31'8 8.9
2016-Dec-03 03:34N 37°50' W 122°24'8 7.8
2016-Dec-03 02:33N 37°57' W 122°30'5 5.4
2016-Dec-03 01:34N 37°53' W 122°26'5 5.2
2016-Dec-03 00:34N 37°48' W 122°23'1010.4
2016-Dec-02 23:34N 37°57' W 122°30'3 3.3
2016-Dec-02 22:33N 37°55' W 122°27'3 3.4
2016-Dec-02 21:33N 37°57' W 122°31'0 0.0
2016-Dec-02 20:33N 37°57' W 122°31'0 0.1
2016-Dec-02 19:33N 37°57' W 122°30'0 0.1
2016-Dec-02 18:33N 37°57' W 122°31'1 1.0
2016-Dec-02 17:33N 37°56' W 122°29'2 1.5
2016-Dec-02 16:33N 37°55' W 122°28'8 8.3
2016-Dec-02 15:33N 37°48' W 122°24'5 4.9
2016-Dec-02 14:34N 37°52' W 122°25'6 6.0
2016-Dec-02 13:33N 37°57' W 122°31'0 0.0
2016-Dec-02 04:24N 37°57' W 122°31'8 8.9
2016-Dec-02 03:34N 37°51' W 122°24'7 7.4
2016-Dec-02 02:33N 37°57' W 122°30'5 4.8
2016-Dec-02 01:33N 37°53' W 122°26'6 5.8
2016-Dec-02 00:33N 37°48' W 122°24'1010.4
2016-Dec-01 23:33N 37°57' W 122°30'4 3.9
2016-Dec-01 22:33N 37°54' W 122°27'4 3.9
2016-Dec-01 21:33N 37°57' W 122°31'0 0.0
2016-Dec-01 20:33N 37°57' W 122°31'0 0.0
2016-Dec-01 19:32N 37°57' W 122°31'7 7.2
2016-Dec-01 18:34N 37°51' W 122°25'6 6.0
2016-Dec-01 17:33N 37°56' W 122°29'2 1.6
2016-Dec-01 16:34N 37°55' W 122°28'8 8.0
2016-Dec-01 15:33N 37°48' W 122°24'4 4.4
2016-Dec-01 14:34N 37°52' W 122°25'7 6.4
2016-Dec-01 13:32N 37°57' W 122°31'0 0.0
2016-Dec-01 04:25N 37°57' W 122°31'7 7.9
2016-Dec-01 03:34N 37°52' W 122°24'7 6.7
2016-Dec-01 02:33N 37°57' W 122°30'6 5.9
2016-Dec-01 01:34N 37°52' W 122°25'5 4.8
2016-Dec-01 00:33N 37°48' W 122°24'1010.4
2016-Nov-30 23:33N 37°57' W 122°30'4 3.9
2016-Nov-30 22:33N 37°54' W 122°27'4 3.9
2016-Nov-30 21:33N 37°57' W 122°30'1 0.9
2016-Nov-30 20:32N 37°56' W 122°29'1 1.0
2016-Nov-30 19:33N 37°57' W 122°30'7 7.2
2016-Nov-30 18:34N 37°51' W 122°25'6 6.1
2016-Nov-30 17:33N 37°56' W 122°29'0 0.1
2016-Nov-30 16:33N 37°56' W 122°29'9 9.4
2016-Nov-30 15:34N 37°48' W 122°23'4 3.6
2016-Nov-30 14:33N 37°51' W 122°24'7 6.6
2016-Nov-30 13:28N 37°57' W 122°31'0 0.0
2016-Nov-30 04:33N 37°57' W 122°30'7 7.0
2016-Nov-30 03:34N 37°52' W 122°24'7 6.9
2016-Nov-30 02:33N 37°57' W 122°30'6 5.7
2016-Nov-30 01:34N 37°53' W 122°25'5 5.1
2016-Nov-30 00:33N 37°48' W 122°24'1010.4
2016-Nov-29 23:33N 37°57' W 122°30'3 2.6
2016-Nov-29 22:34N 37°55' W 122°28'3 2.7
2016-Nov-29 21:33N 37°57' W 122°31'0 0.0
2016-Nov-29 20:33N 37°57' W 122°31'0 0.1
2016-Nov-29 19:33N 37°57' W 122°30'7 7.2
2016-Nov-29 18:33N 37°51' W 122°25'6 6.1
2016-Nov-29 17:34N 37°56' W 122°29'1 0.5
2016-Nov-29 16:33N 37°56' W 122°29'9 9.0
2016-Nov-29 15:34N 37°48' W 122°24'3 3.4
2016-Nov-29 14:34N 37°51' W 122°24'7 7.4
2016-Nov-29 13:33N 37°57' W 122°31'0 0.0
2016-Nov-29 04:14N 37°57' W 122°30'710.1
2016-Nov-29 03:34N 37°52' W 122°24'7 6.8
2016-Nov-29 02:33N 37°57' W 122°30'5 4.9
2016-Nov-29 01:33N 37°53' W 122°26'6 5.8
2016-Nov-29 00:33N 37°48' W 122°23'1010.4
2016-Nov-28 23:33N 37°57' W 122°30'3 3.4
2016-Nov-28 22:33N 37°55' W 122°27'3 3.5
2016-Nov-28 21:33N 37°57' W 122°31'0 0.0
2016-Nov-28 20:33N 37°57' W 122°31'0 0.0
2016-Nov-28 19:34N 37°57' W 122°31'8 7.8
2016-Nov-28 18:33N 37°51' W 122°24'7 6.8
2016-Nov-28 17:33N 37°56' W 122°29'1 1.3
2016-Nov-28 16:33N 37°55' W 122°28'8 8.4
2016-Nov-28 15:33N 37°48' W 122°24'3 2.6
2016-Nov-28 14:33N 37°50' W 122°24'  

Dump ship's entire track history